sensor_id;sensor_type;location;lat;lon;timestamp;P1;durP1;ratioP1;P2;durP2;ratioP2
46489;SDS011;32204;49.160;8.580;2023-02-20T00:01:32;11.15;;;3.90;;
46489;SDS011;32204;49.160;8.580;2023-02-20T00:03:58;9.63;;;4.82;;
46489;SDS011;32204;49.160;8.580;2023-02-20T00:06:23;11.57;;;4.28;;
46489;SDS011;32204;49.160;8.580;2023-02-20T00:08:49;10.80;;;4.38;;
46489;SDS011;32204;49.160;8.580;2023-02-20T00:11:14;10.52;;;3.97;;
46489;SDS011;32204;49.160;8.580;2023-02-20T00:13:44;7.72;;;3.60;;
46489;SDS011;32204;49.160;8.580;2023-02-20T00:16:13;12.10;;;4.00;;
46489;SDS011;32204;49.160;8.580;2023-02-20T00:18:39;8.77;;;3.67;;
46489;SDS011;32204;49.160;8.580;2023-02-20T00:21:05;9.88;;;4.03;;
46489;SDS011;32204;49.160;8.580;2023-02-20T00:23:31;8.40;;;4.10;;
46489;SDS011;32204;49.160;8.580;2023-02-20T00:25:57;10.43;;;4.20;;
46489;SDS011;32204;49.160;8.580;2023-02-20T00:28:23;7.47;;;3.75;;
46489;SDS011;32204;49.160;8.580;2023-02-20T00:30:48;9.43;;;4.07;;
46489;SDS011;32204;49.160;8.580;2023-02-20T00:33:14;12.80;;;3.72;;
46489;SDS011;32204;49.160;8.580;2023-02-20T00:35:40;13.40;;;5.18;;
46489;SDS011;32204;49.160;8.580;2023-02-20T00:38:05;8.73;;;4.18;;
46489;SDS011;32204;49.160;8.580;2023-02-20T00:40:31;7.95;;;3.97;;
46489;SDS011;32204;49.160;8.580;2023-02-20T00:42:56;9.30;;;4.85;;
46489;SDS011;32204;49.160;8.580;2023-02-20T00:45:22;10.20;;;4.47;;
46489;SDS011;32204;49.160;8.580;2023-02-20T00:47:48;7.45;;;3.90;;
46489;SDS011;32204;49.160;8.580;2023-02-20T00:50:14;10.20;;;4.07;;
46489;SDS011;32204;49.160;8.580;2023-02-20T00:52:41;13.77;;;4.37;;
46489;SDS011;32204;49.160;8.580;2023-02-20T00:55:07;12.27;;;4.88;;
46489;SDS011;32204;49.160;8.580;2023-02-20T00:57:33;10.80;;;4.57;;
46489;SDS011;32204;49.160;8.580;2023-02-20T00:59:58;12.13;;;5.35;;
46489;SDS011;32204;49.160;8.580;2023-02-20T01:02:24;10.70;;;5.13;;
46489;SDS011;32204;49.160;8.580;2023-02-20T01:04:50;15.23;;;4.60;;
46489;SDS011;32204;49.160;8.580;2023-02-20T01:07:15;11.68;;;4.80;;
46489;SDS011;32204;49.160;8.580;2023-02-20T01:09:41;11.57;;;5.22;;
46489;SDS011;32204;49.160;8.580;2023-02-20T01:12:07;14.82;;;5.80;;
46489;SDS011;32204;49.160;8.580;2023-02-20T01:14:32;11.93;;;5.28;;
46489;SDS011;32204;49.160;8.580;2023-02-20T01:16:58;11.55;;;5.05;;
46489;SDS011;32204;49.160;8.580;2023-02-20T01:19:24;8.63;;;5.25;;
46489;SDS011;32204;49.160;8.580;2023-02-20T01:21:49;9.85;;;6.20;;
46489;SDS011;32204;49.160;8.580;2023-02-20T01:24:16;11.65;;;6.85;;
46489;SDS011;32204;49.160;8.580;2023-02-20T01:26:43;11.50;;;5.18;;
46489;SDS011;32204;49.160;8.580;2023-02-20T01:29:10;9.82;;;5.43;;
46489;SDS011;32204;49.160;8.580;2023-02-20T01:31:36;11.20;;;5.78;;
46489;SDS011;32204;49.160;8.580;2023-02-20T01:34:02;12.65;;;6.30;;
46489;SDS011;32204;49.160;8.580;2023-02-20T01:36:28;13.32;;;6.32;;
46489;SDS011;32204;49.160;8.580;2023-02-20T01:38:54;11.43;;;5.80;;
46489;SDS011;32204;49.160;8.580;2023-02-20T01:41:20;13.15;;;5.82;;
46489;SDS011;32204;49.160;8.580;2023-02-20T01:43:47;11.10;;;5.60;;
46489;SDS011;32204;49.160;8.580;2023-02-20T01:49:19;10.57;;;5.10;;
46489;SDS011;32204;49.160;8.580;2023-02-20T01:51:44;11.98;;;5.88;;
46489;SDS011;32204;49.160;8.580;2023-02-20T01:54:17;11.70;;;5.85;;
46489;SDS011;32204;49.160;8.580;2023-02-20T01:56:47;14.40;;;5.30;;
46489;SDS011;32204;49.160;8.580;2023-02-20T01:59:13;9.52;;;5.43;;
46489;SDS011;32204;49.160;8.580;2023-02-20T02:01:40;13.20;;;5.18;;
46489;SDS011;32204;49.160;8.580;2023-02-20T02:04:07;11.77;;;5.47;;
46489;SDS011;32204;49.160;8.580;2023-02-20T02:06:36;11.85;;;5.80;;
46489;SDS011;32204;49.160;8.580;2023-02-20T02:09:12;13.90;;;6.80;;
46489;SDS011;32204;49.160;8.580;2023-02-20T02:11:46;14.30;;;6.25;;
46489;SDS011;32204;49.160;8.580;2023-02-20T02:14:13;15.20;;;6.38;;
46489;SDS011;32204;49.160;8.580;2023-02-20T02:19:42;11.13;;;5.55;;
46489;SDS011;32204;49.160;8.580;2023-02-20T02:22:40;11.18;;;5.25;;
46489;SDS011;32204;49.160;8.580;2023-02-20T02:36:25;16.10;;;5.82;;
46489;SDS011;32204;49.160;8.580;2023-02-20T02:41:31;10.48;;;5.28;;
46489;SDS011;32204;49.160;8.580;2023-02-20T02:47:18;16.67;;;6.30;;
46489;SDS011;32204;49.160;8.580;2023-02-20T02:49:57;11.07;;;5.35;;
46489;SDS011;32204;49.160;8.580;2023-02-20T02:52:26;12.32;;;5.85;;
46489;SDS011;32204;49.160;8.580;2023-02-20T02:55:03;19.88;;;6.65;;
46489;SDS011;32204;49.160;8.580;2023-02-20T02:57:29;13.00;;;6.43;;
46489;SDS011;32204;49.160;8.580;2023-02-20T03:00:05;14.57;;;6.63;;
46489;SDS011;32204;49.160;8.580;2023-02-20T03:05:18;13.67;;;5.33;;
46489;SDS011;32204;49.160;8.580;2023-02-20T03:07:47;16.77;;;5.75;;
46489;SDS011;32204;49.160;8.580;2023-02-20T03:10:21;11.32;;;5.30;;
46489;SDS011;32204;49.160;8.580;2023-02-20T03:12:55;14.13;;;6.10;;
46489;SDS011;32204;49.160;8.580;2023-02-20T03:15:25;11.85;;;5.97;;
46489;SDS011;32204;49.160;8.580;2023-02-20T03:20:44;15.13;;;5.72;;
46489;SDS011;32204;49.160;8.580;2023-02-20T03:23:23;10.82;;;5.28;;
46489;SDS011;32204;49.160;8.580;2023-02-20T03:25:56;11.60;;;6.00;;
46489;SDS011;32204;49.160;8.580;2023-02-20T03:28:29;12.85;;;5.82;;
46489;SDS011;32204;49.160;8.580;2023-02-20T03:31:09;13.00;;;6.60;;
46489;SDS011;32204;49.160;8.580;2023-02-20T03:33:55;16.00;;;6.03;;
46489;SDS011;32204;49.160;8.580;2023-02-20T03:36:50;19.02;;;6.60;;
46489;SDS011;32204;49.160;8.580;2023-02-20T03:39:43;12.68;;;6.07;;
46489;SDS011;32204;49.160;8.580;2023-02-20T03:42:30;11.50;;;5.40;;
46489;SDS011;32204;49.160;8.580;2023-02-20T03:45:18;12.32;;;6.03;;
46489;SDS011;32204;49.160;8.580;2023-02-20T03:47:47;12.57;;;5.90;;
46489;SDS011;32204;49.160;8.580;2023-02-20T03:50:16;16.15;;;7.00;;
46489;SDS011;32204;49.160;8.580;2023-02-20T03:52:43;8.75;;;5.45;;
46489;SDS011;32204;49.160;8.580;2023-02-20T03:55:08;12.50;;;5.85;;
46489;SDS011;32204;49.160;8.580;2023-02-20T03:57:38;10.77;;;5.78;;
46489;SDS011;32204;49.160;8.580;2023-02-20T04:00:13;12.70;;;6.28;;
46489;SDS011;32204;49.160;8.580;2023-02-20T04:02:43;13.50;;;6.55;;
46489;SDS011;32204;49.160;8.580;2023-02-20T04:05:12;14.85;;;5.75;;
46489;SDS011;32204;49.160;8.580;2023-02-20T04:07:52;16.10;;;6.13;;
46489;SDS011;32204;49.160;8.580;2023-02-20T04:10:23;13.57;;;6.75;;
46489;SDS011;32204;49.160;8.580;2023-02-20T04:12:52;11.23;;;6.20;;
46489;SDS011;32204;49.160;8.580;2023-02-20T04:15:18;14.90;;;6.15;;
46489;SDS011;32204;49.160;8.580;2023-02-20T04:17:47;13.38;;;6.20;;
46489;SDS011;32204;49.160;8.580;2023-02-20T04:20:15;14.80;;;5.97;;
46489;SDS011;32204;49.160;8.580;2023-02-20T04:22:43;13.00;;;6.00;;
46489;SDS011;32204;49.160;8.580;2023-02-20T04:28:25;12.45;;;5.57;;
46489;SDS011;32204;49.160;8.580;2023-02-20T04:30:51;13.95;;;5.43;;
46489;SDS011;32204;49.160;8.580;2023-02-20T04:33:17;16.08;;;6.10;;
46489;SDS011;32204;49.160;8.580;2023-02-20T04:35:44;9.13;;;5.57;;
46489;SDS011;32204;49.160;8.580;2023-02-20T04:38:11;12.80;;;6.88;;
46489;SDS011;32204;49.160;8.580;2023-02-20T04:40:37;14.48;;;5.65;;
46489;SDS011;32204;49.160;8.580;2023-02-20T04:43:02;9.60;;;4.70;;
46489;SDS011;32204;49.160;8.580;2023-02-20T04:45:28;13.43;;;6.10;;
46489;SDS011;32204;49.160;8.580;2023-02-20T04:47:54;17.83;;;6.10;;
46489;SDS011;32204;49.160;8.580;2023-02-20T04:50:21;11.25;;;5.80;;
46489;SDS011;32204;49.160;8.580;2023-02-20T04:52:50;11.85;;;6.63;;
46489;SDS011;32204;49.160;8.580;2023-02-20T04:55:16;13.82;;;6.25;;
46489;SDS011;32204;49.160;8.580;2023-02-20T04:57:42;10.80;;;6.03;;
46489;SDS011;32204;49.160;8.580;2023-02-20T05:00:08;8.65;;;5.88;;
46489;SDS011;32204;49.160;8.580;2023-02-20T05:02:36;11.65;;;5.72;;
46489;SDS011;32204;49.160;8.580;2023-02-20T05:05:03;10.20;;;5.85;;
46489;SDS011;32204;49.160;8.580;2023-02-20T05:07:29;14.52;;;6.15;;
46489;SDS011;32204;49.160;8.580;2023-02-20T05:09:54;15.68;;;6.47;;
46489;SDS011;32204;49.160;8.580;2023-02-20T05:12:20;12.10;;;5.90;;
46489;SDS011;32204;49.160;8.580;2023-02-20T05:14:46;13.68;;;6.45;;
46489;SDS011;32204;49.160;8.580;2023-02-20T05:17:11;15.70;;;7.05;;
46489;SDS011;32204;49.160;8.580;2023-02-20T05:19:37;11.80;;;7.80;;
46489;SDS011;32204;49.160;8.580;2023-02-20T05:22:05;14.80;;;7.75;;
46489;SDS011;32204;49.160;8.580;2023-02-20T05:24:44;19.77;;;11.68;;
46489;SDS011;32204;49.160;8.580;2023-02-20T05:27:13;15.60;;;9.10;;
46489;SDS011;32204;49.160;8.580;2023-02-20T05:29:48;35.17;;;23.37;;
46489;SDS011;32204;49.160;8.580;2023-02-20T05:32:15;66.40;;;41.15;;
46489;SDS011;32204;49.160;8.580;2023-02-20T05:34:42;69.85;;;46.38;;
46489;SDS011;32204;49.160;8.580;2023-02-20T05:37:08;74.95;;;50.33;;
46489;SDS011;32204;49.160;8.580;2023-02-20T05:39:34;20.02;;;14.07;;
46489;SDS011;32204;49.160;8.580;2023-02-20T05:42:00;18.42;;;11.13;;
46489;SDS011;32204;49.160;8.580;2023-02-20T05:44:26;15.27;;;8.20;;
46489;SDS011;32204;49.160;8.580;2023-02-20T05:46:51;17.88;;;8.07;;
46489;SDS011;32204;49.160;8.580;2023-02-20T05:49:18;18.50;;;8.85;;
46489;SDS011;32204;49.160;8.580;2023-02-20T05:51:44;20.35;;;9.43;;
46489;SDS011;32204;49.160;8.580;2023-02-20T05:54:09;20.85;;;7.85;;
46489;SDS011;32204;49.160;8.580;2023-02-20T05:56:35;12.48;;;6.85;;
46489;SDS011;32204;49.160;8.580;2023-02-20T05:59:04;13.93;;;6.65;;
46489;SDS011;32204;49.160;8.580;2023-02-20T06:01:30;15.25;;;7.13;;
46489;SDS011;32204;49.160;8.580;2023-02-20T06:03:56;17.35;;;7.38;;
46489;SDS011;32204;49.160;8.580;2023-02-20T06:06:22;15.40;;;8.55;;
46489;SDS011;32204;49.160;8.580;2023-02-20T06:08:48;15.23;;;7.25;;
46489;SDS011;32204;49.160;8.580;2023-02-20T06:11:14;13.77;;;7.10;;
46489;SDS011;32204;49.160;8.580;2023-02-20T06:13:41;12.80;;;7.05;;
46489;SDS011;32204;49.160;8.580;2023-02-20T06:16:08;11.63;;;8.10;;
46489;SDS011;32204;49.160;8.580;2023-02-20T06:18:38;19.52;;;7.68;;
46489;SDS011;32204;49.160;8.580;2023-02-20T06:21:08;16.98;;;8.20;;
46489;SDS011;32204;49.160;8.580;2023-02-20T06:23:37;20.05;;;7.97;;
46489;SDS011;32204;49.160;8.580;2023-02-20T06:26:04;11.77;;;7.00;;
46489;SDS011;32204;49.160;8.580;2023-02-20T06:28:33;14.35;;;8.30;;
46489;SDS011;32204;49.160;8.580;2023-02-20T06:33:24;17.70;;;6.90;;
46489;SDS011;32204;49.160;8.580;2023-02-20T06:35:50;14.05;;;7.75;;
46489;SDS011;32204;49.160;8.580;2023-02-20T06:38:16;19.48;;;9.73;;
46489;SDS011;32204;49.160;8.580;2023-02-20T06:40:42;16.13;;;10.05;;
46489;SDS011;32204;49.160;8.580;2023-02-20T06:43:08;22.35;;;11.05;;
46489;SDS011;32204;49.160;8.580;2023-02-20T06:45:33;18.20;;;8.48;;
46489;SDS011;32204;49.160;8.580;2023-02-20T06:47:59;17.20;;;8.43;;
46489;SDS011;32204;49.160;8.580;2023-02-20T06:50:26;20.80;;;11.48;;
46489;SDS011;32204;49.160;8.580;2023-02-20T06:52:51;15.88;;;10.63;;
46489;SDS011;32204;49.160;8.580;2023-02-20T06:55:17;23.83;;;10.43;;
46489;SDS011;32204;49.160;8.580;2023-02-20T06:57:42;19.38;;;11.43;;
46489;SDS011;32204;49.160;8.580;2023-02-20T07:00:08;22.95;;;11.38;;
46489;SDS011;32204;49.160;8.580;2023-02-20T07:02:34;19.45;;;12.23;;
46489;SDS011;32204;49.160;8.580;2023-02-20T07:05:01;23.83;;;12.82;;
46489;SDS011;32204;49.160;8.580;2023-02-20T07:07:28;19.85;;;9.18;;
46489;SDS011;32204;49.160;8.580;2023-02-20T07:09:53;45.22;;;19.40;;
46489;SDS011;32204;49.160;8.580;2023-02-20T07:12:19;58.03;;;24.27;;
46489;SDS011;32204;49.160;8.580;2023-02-20T07:14:45;48.08;;;18.95;;
46489;SDS011;32204;49.160;8.580;2023-02-20T07:17:10;27.67;;;14.07;;
46489;SDS011;32204;49.160;8.580;2023-02-20T07:19:36;69.85;;;28.88;;
46489;SDS011;32204;49.160;8.580;2023-02-20T07:22:02;29.25;;;14.50;;
46489;SDS011;32204;49.160;8.580;2023-02-20T07:24:28;12.15;;;7.78;;
46489;SDS011;32204;49.160;8.580;2023-02-20T07:26:53;15.55;;;7.57;;
46489;SDS011;32204;49.160;8.580;2023-02-20T07:29:19;15.80;;;8.07;;
46489;SDS011;32204;49.160;8.580;2023-02-20T07:31:44;12.35;;;8.05;;
46489;SDS011;32204;49.160;8.580;2023-02-20T07:34:10;12.50;;;7.07;;
46489;SDS011;32204;49.160;8.580;2023-02-20T07:36:36;14.57;;;7.93;;
46489;SDS011;32204;49.160;8.580;2023-02-20T07:39:02;13.15;;;7.20;;
46489;SDS011;32204;49.160;8.580;2023-02-20T07:41:30;15.45;;;8.30;;
46489;SDS011;32204;49.160;8.580;2023-02-20T07:43:58;15.55;;;7.60;;
46489;SDS011;32204;49.160;8.580;2023-02-20T07:46:24;13.73;;;7.78;;
46489;SDS011;32204;49.160;8.580;2023-02-20T07:48:50;13.45;;;7.50;;
46489;SDS011;32204;49.160;8.580;2023-02-20T07:51:17;10.70;;;7.22;;
46489;SDS011;32204;49.160;8.580;2023-02-20T07:53:46;13.13;;;6.90;;
46489;SDS011;32204;49.160;8.580;2023-02-20T07:56:13;12.15;;;6.80;;
46489;SDS011;32204;49.160;8.580;2023-02-20T07:58:39;10.63;;;7.68;;
46489;SDS011;32204;49.160;8.580;2023-02-20T08:01:04;13.68;;;7.22;;
46489;SDS011;32204;49.160;8.580;2023-02-20T08:03:30;15.05;;;7.38;;
46489;SDS011;32204;49.160;8.580;2023-02-20T08:05:55;13.50;;;6.82;;
46489;SDS011;32204;49.160;8.580;2023-02-20T08:08:21;11.15;;;6.80;;
46489;SDS011;32204;49.160;8.580;2023-02-20T08:10:49;14.52;;;7.50;;
46489;SDS011;32204;49.160;8.580;2023-02-20T08:13:15;17.92;;;7.88;;
46489;SDS011;32204;49.160;8.580;2023-02-20T08:15:41;11.32;;;6.72;;
46489;SDS011;32204;49.160;8.580;2023-02-20T08:18:08;7.82;;;4.82;;
46489;SDS011;32204;49.160;8.580;2023-02-20T08:20:34;11.80;;;5.10;;
46489;SDS011;32204;49.160;8.580;2023-02-20T08:23:00;10.95;;;6.38;;
46489;SDS011;32204;49.160;8.580;2023-02-20T08:27:56;15.35;;;6.45;;
46489;SDS011;32204;49.160;8.580;2023-02-20T08:30:23;11.63;;;5.93;;
46489;SDS011;32204;49.160;8.580;2023-02-20T08:32:51;11.38;;;5.07;;
46489;SDS011;32204;49.160;8.580;2023-02-20T08:35:17;10.57;;;5.85;;
46489;SDS011;32204;49.160;8.580;2023-02-20T08:37:43;9.23;;;5.32;;
46489;SDS011;32204;49.160;8.580;2023-02-20T08:40:10;10.30;;;5.10;;
46489;SDS011;32204;49.160;8.580;2023-02-20T08:42:36;9.93;;;4.45;;
46489;SDS011;32204;49.160;8.580;2023-02-20T08:45:05;8.02;;;5.53;;
46489;SDS011;32204;49.160;8.580;2023-02-20T08:47:32;15.10;;;6.20;;
46489;SDS011;32204;49.160;8.580;2023-02-20T08:49:57;9.38;;;5.07;;
46489;SDS011;32204;49.160;8.580;2023-02-20T08:52:23;9.45;;;4.47;;
46489;SDS011;32204;49.160;8.580;2023-02-20T08:54:49;8.48;;;3.38;;
46489;SDS011;32204;49.160;8.580;2023-02-20T08:57:15;7.88;;;4.20;;
46489;SDS011;32204;49.160;8.580;2023-02-20T08:59:41;10.60;;;4.00;;
46489;SDS011;32204;49.160;8.580;2023-02-20T09:02:16;8.20;;;4.35;;
46489;SDS011;32204;49.160;8.580;2023-02-20T09:04:44;9.68;;;3.72;;
46489;SDS011;32204;49.160;8.580;2023-02-20T09:07:13;14.70;;;4.47;;
46489;SDS011;32204;49.160;8.580;2023-02-20T09:09:38;11.55;;;4.35;;
46489;SDS011;32204;49.160;8.580;2023-02-20T09:12:04;8.82;;;4.45;;
46489;SDS011;32204;49.160;8.580;2023-02-20T09:14:30;6.68;;;4.38;;
46489;SDS011;32204;49.160;8.580;2023-02-20T09:16:56;8.40;;;4.68;;
46489;SDS011;32204;49.160;8.580;2023-02-20T09:19:21;6.35;;;3.08;;
46489;SDS011;32204;49.160;8.580;2023-02-20T09:21:48;9.13;;;3.97;;
46489;SDS011;32204;49.160;8.580;2023-02-20T09:26:42;8.75;;;4.40;;
46489;SDS011;32204;49.160;8.580;2023-02-20T09:29:08;9.73;;;3.40;;
46489;SDS011;32204;49.160;8.580;2023-02-20T09:31:34;8.02;;;3.50;;
46489;SDS011;32204;49.160;8.580;2023-02-20T09:33:59;10.73;;;4.07;;
46489;SDS011;32204;49.160;8.580;2023-02-20T09:36:25;5.50;;;3.03;;
46489;SDS011;32204;49.160;8.580;2023-02-20T09:38:51;8.13;;;4.40;;
46489;SDS011;32204;49.160;8.580;2023-02-20T09:41:27;10.43;;;3.97;;
46489;SDS011;32204;49.160;8.580;2023-02-20T09:44:24;8.45;;;3.55;;
46489;SDS011;32204;49.160;8.580;2023-02-20T09:47:02;8.50;;;3.97;;
46489;SDS011;32204;49.160;8.580;2023-02-20T09:49:47;8.30;;;3.88;;
46489;SDS011;32204;49.160;8.580;2023-02-20T09:52:13;9.43;;;4.68;;
46489;SDS011;32204;49.160;8.580;2023-02-20T09:54:41;9.68;;;3.22;;
46489;SDS011;32204;49.160;8.580;2023-02-20T09:57:15;5.82;;;3.67;;
46489;SDS011;32204;49.160;8.580;2023-02-20T09:59:49;9.20;;;3.80;;
46489;SDS011;32204;49.160;8.580;2023-02-20T10:02:18;13.30;;;3.80;;
46489;SDS011;32204;49.160;8.580;2023-02-20T10:04:51;6.90;;;3.45;;
46489;SDS011;32204;49.160;8.580;2023-02-20T10:09:57;7.72;;;3.10;;
46489;SDS011;32204;49.160;8.580;2023-02-20T10:15:27;7.10;;;2.60;;
46489;SDS011;32204;49.160;8.580;2023-02-20T10:17:57;5.28;;;2.85;;
46489;SDS011;32204;49.160;8.580;2023-02-20T10:23:51;8.90;;;3.33;;
46489;SDS011;32204;49.160;8.580;2023-02-20T10:26:29;5.45;;;2.60;;
46489;SDS011;32204;49.160;8.580;2023-02-20T10:29:20;5.50;;;2.42;;
46489;SDS011;32204;49.160;8.580;2023-02-20T10:31:51;9.50;;;3.13;;
46489;SDS011;32204;49.160;8.580;2023-02-20T10:34:27;5.13;;;2.83;;
46489;SDS011;32204;49.160;8.580;2023-02-20T10:37:01;13.70;;;3.60;;
46489;SDS011;32204;49.160;8.580;2023-02-20T10:39:37;10.77;;;4.45;;
46489;SDS011;32204;49.160;8.580;2023-02-20T10:42:09;9.07;;;3.30;;
46489;SDS011;32204;49.160;8.580;2023-02-20T10:44:57;6.75;;;3.00;;
46489;SDS011;32204;49.160;8.580;2023-02-20T10:47:39;9.02;;;3.63;;
46489;SDS011;32204;49.160;8.580;2023-02-20T10:52:51;5.40;;;3.45;;
46489;SDS011;32204;49.160;8.580;2023-02-20T10:55:57;6.75;;;4.47;;
46489;SDS011;32204;49.160;8.580;2023-02-20T11:01:06;8.40;;;4.22;;
46489;SDS011;32204;49.160;8.580;2023-02-20T11:06:28;7.30;;;4.15;;
46489;SDS011;32204;49.160;8.580;2023-02-20T11:08:57;11.32;;;4.97;;
46489;SDS011;32204;49.160;8.580;2023-02-20T11:11:33;8.48;;;4.28;;
46489;SDS011;32204;49.160;8.580;2023-02-20T11:14:01;9.75;;;4.10;;
46489;SDS011;32204;49.160;8.580;2023-02-20T11:19:38;13.10;;;5.47;;
46489;SDS011;32204;49.160;8.580;2023-02-20T11:22:06;12.70;;;5.50;;
46489;SDS011;32204;49.160;8.580;2023-02-20T11:24:33;11.20;;;4.72;;
46489;SDS011;32204;49.160;8.580;2023-02-20T11:27:02;13.85;;;5.43;;
46489;SDS011;32204;49.160;8.580;2023-02-20T11:34:44;9.68;;;4.63;;
46489;SDS011;32204;49.160;8.580;2023-02-20T11:37:10;12.88;;;5.03;;
46489;SDS011;32204;49.160;8.580;2023-02-20T11:39:37;12.57;;;4.97;;
46489;SDS011;32204;49.160;8.580;2023-02-20T11:42:16;10.82;;;4.38;;
46489;SDS011;32204;49.160;8.580;2023-02-20T11:44:44;7.60;;;3.67;;
46489;SDS011;32204;49.160;8.580;2023-02-20T11:49:44;12.52;;;5.00;;
46489;SDS011;32204;49.160;8.580;2023-02-20T11:52:22;8.75;;;4.35;;
46489;SDS011;32204;49.160;8.580;2023-02-20T11:55:08;13.20;;;4.97;;
46489;SDS011;32204;49.160;8.580;2023-02-20T11:57:33;9.85;;;3.88;;
46489;SDS011;32204;49.160;8.580;2023-02-20T12:02:46;15.48;;;6.65;;
46489;SDS011;32204;49.160;8.580;2023-02-20T12:05:14;6.47;;;4.07;;
46489;SDS011;32204;49.160;8.580;2023-02-20T12:10:41;9.02;;;4.10;;
46489;SDS011;32204;49.160;8.580;2023-02-20T12:13:13;11.63;;;4.65;;
46489;SDS011;32204;49.160;8.580;2023-02-20T12:15:40;14.23;;;4.28;;
46489;SDS011;32204;49.160;8.580;2023-02-20T12:18:12;7.55;;;4.22;;
46489;SDS011;32204;49.160;8.580;2023-02-20T12:20:49;9.13;;;3.85;;
46489;SDS011;32204;49.160;8.580;2023-02-20T12:26:30;8.75;;;4.15;;
46489;SDS011;32204;49.160;8.580;2023-02-20T12:29:17;11.75;;;4.88;;
46489;SDS011;32204;49.160;8.580;2023-02-20T12:37:21;9.75;;;4.97;;
46489;SDS011;32204;49.160;8.580;2023-02-20T12:48:25;11.48;;;5.05;;
46489;SDS011;32204;49.160;8.580;2023-02-20T12:50:54;10.65;;;5.13;;
46489;SDS011;32204;49.160;8.580;2023-02-20T12:53:43;8.95;;;4.82;;
46489;SDS011;32204;49.160;8.580;2023-02-20T12:56:33;12.95;;;5.05;;
46489;SDS011;32204;49.160;8.580;2023-02-20T12:59:08;10.23;;;4.78;;
46489;SDS011;32204;49.160;8.580;2023-02-20T13:01:45;7.03;;;3.97;;
46489;SDS011;32204;49.160;8.580;2023-02-20T13:04:16;10.48;;;4.80;;
46489;SDS011;32204;49.160;8.580;2023-02-20T13:07:07;13.07;;;5.95;;
46489;SDS011;32204;49.160;8.580;2023-02-20T13:09:34;11.95;;;5.50;;
46489;SDS011;32204;49.160;8.580;2023-02-20T13:12:06;8.60;;;4.28;;
46489;SDS011;32204;49.160;8.580;2023-02-20T13:14:41;9.43;;;4.78;;
46489;SDS011;32204;49.160;8.580;2023-02-20T13:20:05;12.07;;;4.65;;
46489;SDS011;32204;49.160;8.580;2023-02-20T13:22:41;13.27;;;5.32;;
46489;SDS011;32204;49.160;8.580;2023-02-20T13:28:20;11.07;;;4.72;;
46489;SDS011;32204;49.160;8.580;2023-02-20T13:31:08;8.50;;;4.70;;
46489;SDS011;32204;49.160;8.580;2023-02-20T13:55:11;8.27;;;3.22;;
46489;SDS011;32204;49.160;8.580;2023-02-20T13:57:55;7.13;;;2.70;;
46489;SDS011;32204;49.160;8.580;2023-02-20T14:00:28;6.25;;;2.72;;
46489;SDS011;32204;49.160;8.580;2023-02-20T14:05:59;7.47;;;2.60;;
46489;SDS011;32204;49.160;8.580;2023-02-20T14:08:33;8.15;;;2.88;;
46489;SDS011;32204;49.160;8.580;2023-02-20T14:11:04;9.95;;;3.47;;
46489;SDS011;32204;49.160;8.580;2023-02-20T14:13:30;13.77;;;3.70;;
46489;SDS011;32204;49.160;8.580;2023-02-20T14:15:57;12.00;;;2.85;;
46489;SDS011;32204;49.160;8.580;2023-02-20T14:18:33;6.88;;;3.45;;
46489;SDS011;32204;49.160;8.580;2023-02-20T14:21:16;8.80;;;3.05;;
46489;SDS011;32204;49.160;8.580;2023-02-20T14:23:43;11.30;;;3.50;;
46489;SDS011;32204;49.160;8.580;2023-02-20T14:26:18;8.57;;;3.20;;
46489;SDS011;32204;49.160;8.580;2023-02-20T14:28:46;9.65;;;4.70;;
46489;SDS011;32204;49.160;8.580;2023-02-20T14:31:18;8.70;;;3.30;;
46489;SDS011;32204;49.160;8.580;2023-02-20T14:33:46;7.32;;;3.15;;
46489;SDS011;32204;49.160;8.580;2023-02-20T14:36:18;8.52;;;2.63;;
46489;SDS011;32204;49.160;8.580;2023-02-20T14:39:13;9.85;;;3.75;;
46489;SDS011;32204;49.160;8.580;2023-02-20T14:41:49;4.43;;;1.90;;
46489;SDS011;32204;49.160;8.580;2023-02-20T14:44:20;5.95;;;2.72;;
46489;SDS011;32204;49.160;8.580;2023-02-20T14:46:49;4.07;;;1.95;;
46489;SDS011;32204;49.160;8.580;2023-02-20T14:49:24;6.45;;;2.70;;
46489;SDS011;32204;49.160;8.580;2023-02-20T14:52:02;6.70;;;2.35;;
46489;SDS011;32204;49.160;8.580;2023-02-20T14:54:37;6.95;;;1.83;;
46489;SDS011;32204;49.160;8.580;2023-02-20T14:57:05;6.47;;;2.35;;
46489;SDS011;32204;49.160;8.580;2023-02-20T14:59:34;10.32;;;2.50;;
46489;SDS011;32204;49.160;8.580;2023-02-20T15:02:22;6.38;;;2.80;;
46489;SDS011;32204;49.160;8.580;2023-02-20T15:04:51;8.85;;;2.30;;
46489;SDS011;32204;49.160;8.580;2023-02-20T15:07:29;5.00;;;2.17;;
46489;SDS011;32204;49.160;8.580;2023-02-20T15:09:57;9.85;;;3.03;;
46489;SDS011;32204;49.160;8.580;2023-02-20T15:12:33;5.70;;;2.95;;
46489;SDS011;32204;49.160;8.580;2023-02-20T15:15:11;6.18;;;2.60;;
46489;SDS011;32204;49.160;8.580;2023-02-20T15:17:39;6.25;;;2.25;;
46489;SDS011;32204;49.160;8.580;2023-02-20T15:20:51;4.63;;;2.33;;
46489;SDS011;32204;49.160;8.580;2023-02-20T15:26:24;6.82;;;2.30;;
46489;SDS011;32204;49.160;8.580;2023-02-20T15:31:36;5.78;;;2.25;;
46489;SDS011;32204;49.160;8.580;2023-02-20T15:34:05;9.65;;;2.30;;
46489;SDS011;32204;49.160;8.580;2023-02-20T15:36:39;4.20;;;1.85;;
46489;SDS011;32204;49.160;8.580;2023-02-20T15:39:08;7.82;;;3.17;;
46489;SDS011;32204;49.160;8.580;2023-02-20T15:41:36;8.93;;;3.08;;
46489;SDS011;32204;49.160;8.580;2023-02-20T15:44:02;7.38;;;3.92;;
46489;SDS011;32204;49.160;8.580;2023-02-20T15:46:28;5.45;;;2.90;;
46489;SDS011;32204;49.160;8.580;2023-02-20T15:48:54;6.30;;;2.47;;
46489;SDS011;32204;49.160;8.580;2023-02-20T15:51:20;6.93;;;2.88;;
46489;SDS011;32204;49.160;8.580;2023-02-20T15:53:47;4.68;;;1.95;;
46489;SDS011;32204;49.160;8.580;2023-02-20T15:56:15;10.05;;;4.18;;
46489;SDS011;32204;49.160;8.580;2023-02-20T15:58:41;5.30;;;1.85;;
46489;SDS011;32204;49.160;8.580;2023-02-20T16:01:08;6.30;;;2.40;;
46489;SDS011;32204;49.160;8.580;2023-02-20T16:03:34;7.68;;;2.90;;
46489;SDS011;32204;49.160;8.580;2023-02-20T16:05:59;4.40;;;2.45;;
46489;SDS011;32204;49.160;8.580;2023-02-20T16:08:26;8.65;;;4.65;;
46489;SDS011;32204;49.160;8.580;2023-02-20T16:10:52;5.57;;;2.33;;
46489;SDS011;32204;49.160;8.580;2023-02-20T16:13:24;8.73;;;2.97;;
46489;SDS011;32204;49.160;8.580;2023-02-20T16:15:53;5.28;;;2.72;;
46489;SDS011;32204;49.160;8.580;2023-02-20T16:18:19;5.63;;;2.10;;
46489;SDS011;32204;49.160;8.580;2023-02-20T16:20:45;9.73;;;2.40;;
46489;SDS011;32204;49.160;8.580;2023-02-20T16:23:11;5.93;;;2.30;;
46489;SDS011;32204;49.160;8.580;2023-02-20T16:25:36;7.00;;;2.60;;
46489;SDS011;32204;49.160;8.580;2023-02-20T16:28:02;2.97;;;1.88;;
46489;SDS011;32204;49.160;8.580;2023-02-20T16:30:30;7.22;;;2.33;;
46489;SDS011;32204;49.160;8.580;2023-02-20T16:33:00;5.18;;;2.20;;
46489;SDS011;32204;49.160;8.580;2023-02-20T16:35:27;8.75;;;2.08;;
46489;SDS011;32204;49.160;8.580;2023-02-20T16:37:53;7.80;;;2.58;;
46489;SDS011;32204;49.160;8.580;2023-02-20T16:40:18;5.97;;;2.30;;
46489;SDS011;32204;49.160;8.580;2023-02-20T16:42:44;8.38;;;3.22;;
46489;SDS011;32204;49.160;8.580;2023-02-20T16:45:11;4.78;;;2.50;;
46489;SDS011;32204;49.160;8.580;2023-02-20T16:47:39;7.78;;;2.75;;
46489;SDS011;32204;49.160;8.580;2023-02-20T16:50:05;10.27;;;3.03;;
46489;SDS011;32204;49.160;8.580;2023-02-20T16:52:38;6.53;;;2.63;;
46489;SDS011;32204;49.160;8.580;2023-02-20T16:55:06;5.80;;;2.83;;
46489;SDS011;32204;49.160;8.580;2023-02-20T16:57:46;6.15;;;2.63;;
46489;SDS011;32204;49.160;8.580;2023-02-20T17:00:13;7.05;;;2.58;;